createdAt,value
2023-02-06T00:02:46.170Z,-6.63
2023-02-06T00:07:48.029Z,-6.86
2023-02-06T00:12:49.743Z,-6.92
2023-02-06T00:17:51.329Z,-6.88
2023-02-06T00:22:52.969Z,-6.96
2023-02-06T00:27:54.649Z,-7.11
2023-02-06T00:32:56.320Z,-7.10
2023-02-06T00:37:59.789Z,-7.05
2023-02-06T00:43:02.448Z,-7.03
2023-02-06T00:48:04.194Z,-6.96
2023-02-06T00:53:05.893Z,-7.08
2023-02-06T00:58:07.568Z,-7.19
2023-02-06T01:03:09.208Z,-7.23
2023-02-06T01:08:10.908Z,-7.27
2023-02-06T01:13:12.903Z,-7.22
2023-02-06T01:18:15.991Z,-6.84
2023-02-06T01:23:17.623Z,-5.99
2023-02-06T01:28:19.265Z,-5.55
2023-02-06T01:33:21.715Z,-5.43
2023-02-06T01:38:23.339Z,-5.32
2023-02-06T01:43:29.118Z,-5.33
2023-02-06T01:48:37.901Z,-5.30
2023-02-06T01:53:42.458Z,-5.26
2023-02-06T01:58:47.783Z,-5.30
2023-02-06T02:03:52.573Z,-5.35
2023-02-06T02:08:58.468Z,-5.50
2023-02-06T02:14:03.433Z,-5.50
2023-02-06T02:19:23.854Z,-5.36
2023-02-06T02:24:32.685Z,-5.39
2023-02-06T02:30:05.814Z,-5.35
2023-02-06T02:35:46.145Z,-5.50
2023-02-06T02:40:51.663Z,-5.47
2023-02-06T02:46:08.882Z,-5.35
2023-02-06T02:51:11.609Z,-5.36
2023-02-06T02:56:19.617Z,-5.56
2023-02-06T03:01:29.193Z,-5.62
2023-02-06T03:06:44.112Z,-5.72
2023-02-06T03:11:55.908Z,-5.80
2023-02-06T03:17:10.436Z,-6.07
2023-02-06T03:22:14.929Z,-5.92
2023-02-06T03:27:17.700Z,-5.96
2023-02-06T03:32:29.739Z,-6.02
2023-02-06T03:37:32.432Z,-6.18
2023-02-06T03:42:38.981Z,-6.04
2023-02-06T03:47:43.094Z,-6.30
2023-02-06T03:52:48.696Z,-6.44
2023-02-06T03:57:55.112Z,-6.29
2023-02-06T04:02:57.490Z,-5.82
2023-02-06T04:07:59.116Z,-5.84
2023-02-06T04:13:00.732Z,-5.58
2023-02-06T04:18:02.822Z,-5.46
2023-02-06T04:23:05.031Z,-5.38
2023-02-06T04:28:06.726Z,-5.35
2023-02-06T04:33:08.404Z,-5.21
2023-02-06T04:38:10.033Z,-5.01
2023-02-06T04:43:11.719Z,-5.05
2023-02-06T04:48:13.318Z,-5.05
2023-02-06T04:53:14.974Z,-5.15
2023-02-06T04:58:16.683Z,-5.26
2023-02-06T05:03:18.303Z,-5.36
2023-02-06T05:08:19.931Z,-5.35
2023-02-06T05:13:21.986Z,-4.88
2023-02-06T05:18:24.342Z,-4.82
2023-02-06T05:23:25.989Z,-4.74
2023-02-06T05:28:29.961Z,-4.56
2023-02-06T05:33:31.833Z,-4.41
2023-02-06T05:38:34.213Z,-4.24
2023-02-06T05:43:36.170Z,-4.11
2023-02-06T05:48:38.565Z,-4.01
2023-02-06T05:53:40.231Z,-4.01
2023-02-06T05:58:41.823Z,-3.96
2023-02-06T06:03:43.541Z,-3.84
2023-02-06T06:08:45.185Z,-3.82
2023-02-06T06:13:46.781Z,-3.74
2023-02-06T06:18:48.404Z,-3.77
2023-02-06T06:23:50.114Z,-3.65
2023-02-06T06:28:51.870Z,-3.63
2023-02-06T06:33:54.231Z,-3.63
2023-02-06T06:38:55.972Z,-3.57
2023-02-06T06:43:58.601Z,-3.51
2023-02-06T06:49:01.429Z,-3.44
2023-02-06T06:54:03.215Z,-3.27
2023-02-06T06:59:04.829Z,-3.28
2023-02-06T07:04:06.473Z,-3.11
2023-02-06T07:09:08.111Z,-2.99
2023-02-06T07:14:09.761Z,-2.86
2023-02-06T07:19:11.458Z,-2.80
2023-02-06T07:24:13.052Z,-2.73
2023-02-06T07:29:14.729Z,-2.53
2023-02-06T07:34:16.929Z,-2.53
2023-02-06T07:39:18.606Z,-2.47
2023-02-06T07:44:20.265Z,-2.43
2023-02-06T07:49:21.850Z,-2.42
2023-02-06T07:54:23.505Z,-2.35
2023-02-06T07:59:25.645Z,-2.29
2023-02-06T08:04:29.462Z,-2.30
2023-02-06T08:09:31.226Z,-2.21
2023-02-06T08:14:32.996Z,-2.21
2023-02-06T08:19:34.603Z,-2.13
2023-02-06T08:24:36.232Z,-2.20
2023-02-06T08:29:42.391Z,-2.11
2023-02-06T08:34:44.543Z,-2.02
2023-02-06T08:39:46.158Z,-2.07
2023-02-06T08:44:48.085Z,-2.08
2023-02-06T08:49:50.999Z,-2.11
2023-02-06T08:54:52.956Z,-2.16
2023-02-06T08:59:54.560Z,-2.00
2023-02-06T09:04:56.171Z,-1.90
2023-02-06T09:09:57.842Z,-1.82
2023-02-06T09:14:59.497Z,-1.77
2023-02-06T09:20:01.886Z,-1.77
2023-02-06T09:25:03.643Z,-1.69
2023-02-06T09:30:05.907Z,-1.70
2023-02-06T09:35:07.789Z,-1.68
2023-02-06T09:40:12.665Z,-1.58
2023-02-06T09:45:18.735Z,-1.45
2023-02-06T09:50:27.671Z,-1.52
2023-02-06T09:55:48.376Z,-1.47
2023-02-06T10:01:14.209Z,-1.32
2023-02-06T10:06:23.887Z,-1.22
2023-02-06T10:11:48.338Z,-1.15
2023-02-06T10:16:58.405Z,-0.92
2023-02-06T10:22:38.972Z,-0.84
2023-02-06T10:27:44.129Z,-0.91
2023-02-06T10:33:31.440Z,-0.88
2023-02-06T10:39:23.850Z,-0.79
2023-02-06T10:44:50.831Z,-0.81
2023-02-06T10:50:01.911Z,-0.81
2023-02-06T10:55:16.176Z,-0.74
2023-02-06T11:00:25.064Z,-0.71
2023-02-06T11:05:29.492Z,-0.71
2023-02-06T11:10:32.265Z,-0.68
2023-02-06T11:15:58.789Z,-0.75
2023-02-06T11:21:00.965Z,-0.76
2023-02-06T11:26:15.750Z,-0.62
2023-02-06T11:31:19.856Z,-0.69
2023-02-06T11:36:37.198Z,-0.59
2023-02-06T11:41:38.933Z,-0.36
2023-02-06T11:46:40.852Z,-0.49
2023-02-06T11:51:51.555Z,-0.29
2023-02-06T11:57:03.277Z,0.15
2023-02-06T12:02:27.039Z,0.63
2023-02-06T12:07:41.647Z,0.46
2023-02-06T12:12:49.746Z,0.61
2023-02-06T12:18:03.980Z,0.15
2023-02-06T12:23:15.568Z,0.31
2023-02-06T12:28:39.487Z,-0.08
2023-02-06T12:33:47.858Z,-0.12
2023-02-06T12:39:07.536Z,-0.28
2023-02-06T12:44:24.501Z,-0.50
2023-02-06T12:49:49.074Z,-0.50
2023-02-06T12:54:58.651Z,-0.42
2023-02-06T13:00:34.354Z,-0.63
2023-02-06T13:05:49.227Z,-0.74
2023-02-06T13:11:04.938Z,-0.96
2023-02-06T13:16:07.727Z,-0.80
2023-02-06T13:21:32.686Z,-0.67
2023-02-06T13:26:43.354Z,-0.50
2023-02-06T13:31:44.979Z,-0.38
2023-02-06T13:36:52.290Z,-0.05
2023-02-06T13:41:54.654Z,0.32
2023-02-06T13:47:11.704Z,-0.07
2023-02-06T13:52:31.683Z,-0.09
2023-02-06T13:58:14.716Z,-0.53
2023-02-06T14:03:23.887Z,-0.75
2023-02-06T14:09:00.624Z,-0.98
2023-02-06T14:14:21.733Z,-1.04
2023-02-06T14:19:34.539Z,-1.00
2023-02-06T14:25:16.518Z,-0.75
2023-02-06T14:30:29.867Z,-0.81
2023-02-06T14:35:47.107Z,-1.08
2023-02-06T14:40:55.190Z,-1.11
2023-02-06T14:46:07.429Z,-1.14
2023-02-06T14:51:22.080Z,-1.22
2023-02-06T14:56:36.614Z,-1.34
2023-02-06T15:01:39.152Z,-1.43
2023-02-06T15:06:45.016Z,-1.31
2023-02-06T15:11:51.960Z,-1.28
2023-02-06T15:16:56.793Z,-1.35
2023-02-06T15:22:19.245Z,-1.33
2023-02-06T15:27:34.074Z,-1.58
2023-02-06T15:32:38.607Z,-1.69
2023-02-06T15:37:40.218Z,-1.72
2023-02-06T15:42:42.221Z,-1.75
2023-02-06T15:47:46.061Z,-1.81
2023-02-06T15:52:48.234Z,-1.81
2023-02-06T15:57:50.172Z,-1.90
2023-02-06T16:02:54.551Z,-1.91
2023-02-06T16:07:56.982Z,-1.94
2023-02-06T16:13:01.579Z,-1.88
2023-02-06T16:18:25.179Z,-1.89
2023-02-06T16:23:26.883Z,-1.91
2023-02-06T16:28:29.408Z,-1.83
2023-02-06T16:33:38.587Z,-1.89
2023-02-06T16:38:40.536Z,-1.92
2023-02-06T16:43:42.381Z,-2.03
2023-02-06T16:48:44.010Z,-2.24
2023-02-06T16:53:48.255Z,-2.33
2023-02-06T16:58:50.353Z,-2.35
2023-02-06T17:03:53.052Z,-2.26
2023-02-06T17:08:58.289Z,-2.36
2023-02-06T17:14:00.032Z,-2.54
2023-02-06T17:19:01.907Z,-2.87
2023-02-06T17:24:03.830Z,-3.10
2023-02-06T17:29:05.741Z,-3.33
2023-02-06T17:34:07.398Z,-3.53
2023-02-06T17:39:12.803Z,-3.68
2023-02-06T17:44:17.129Z,-3.81
2023-02-06T17:49:18.842Z,-3.94
2023-02-06T17:54:20.479Z,-4.03
2023-02-06T17:59:22.120Z,-4.01
2023-02-06T18:04:24.898Z,-4.09
2023-02-06T18:09:26.565Z,-4.15
2023-02-06T18:14:28.322Z,-4.17
2023-02-06T18:19:30.398Z,-4.02
2023-02-06T18:24:32.205Z,-4.14
2023-02-06T18:29:48.996Z,-4.20
2023-02-06T18:34:51.292Z,-4.31
2023-02-06T18:39:55.076Z,-4.32
2023-02-06T18:44:56.784Z,-4.20
2023-02-06T18:49:58.408Z,-4.10
2023-02-06T18:55:00.152Z,-4.11
2023-02-06T19:00:02.366Z,-4.21
2023-02-06T19:05:04.230Z,-4.27
2023-02-06T19:10:10.078Z,-4.25
2023-02-06T19:15:12.648Z,-4.09
2023-02-06T19:20:14.348Z,-4.12
2023-02-06T19:25:16.141Z,-4.15
2023-02-06T19:30:17.800Z,-4.35
2023-02-06T19:35:20.382Z,-4.52
2023-02-06T19:40:22.010Z,-4.69
2023-02-06T19:45:23.700Z,-4.80
2023-02-06T19:50:25.358Z,-4.90
2023-02-06T19:55:27.061Z,-4.98
2023-02-06T20:00:29.291Z,-4.86
2023-02-06T20:05:33.444Z,-4.80
2023-02-06T20:10:37.793Z,-4.86
2023-02-06T20:15:39.978Z,-4.95
2023-02-06T20:20:41.675Z,-4.92
2023-02-06T20:25:43.297Z,-5.14
2023-02-06T20:30:45.024Z,-5.29
2023-02-06T20:35:46.683Z,-5.33
2023-02-06T20:40:51.519Z,-5.51
2023-02-06T20:45:53.285Z,-5.58
2023-02-06T20:50:59.579Z,-5.78
2023-02-06T20:56:01.227Z,-5.95
2023-02-06T21:01:11.032Z,-6.01
2023-02-06T21:06:14.071Z,-6.06
2023-02-06T21:11:16.364Z,-6.03
2023-02-06T21:16:17.967Z,-5.91
2023-02-06T21:21:20.407Z,-5.98
2023-02-06T21:26:23.741Z,-6.08
2023-02-06T21:31:38.163Z,-6.23
2023-02-06T21:36:40.400Z,-6.19
2023-02-06T21:41:42.183Z,-6.21
2023-02-06T21:46:43.883Z,-6.49
2023-02-06T21:51:45.539Z,-6.76
2023-02-06T21:56:47.219Z,-6.83
2023-02-06T22:01:48.884Z,-7.11
2023-02-06T22:06:50.625Z,-7.32
2023-02-06T22:11:52.339Z,-7.50
2023-02-06T22:16:54.268Z,-7.48
2023-02-06T22:21:55.946Z,-7.58
2023-02-06T22:26:57.575Z,-7.77
2023-02-06T22:32:04.364Z,-7.92
2023-02-06T22:37:06.068Z,-8.18
2023-02-06T22:42:07.761Z,-8.14
2023-02-06T22:47:09.420Z,-8.22
2023-02-06T22:52:31.115Z,-8.36
2023-02-06T22:57:35.236Z,-8.64
2023-02-06T23:02:38.431Z,-8.84
2023-02-06T23:07:40.149Z,-9.06
2023-02-06T23:12:41.768Z,-9.03
2023-02-06T23:17:43.454Z,-9.09
2023-02-06T23:22:45.073Z,-9.16
2023-02-06T23:27:46.728Z,-9.26
2023-02-06T23:32:48.766Z,-9.35
2023-02-06T23:37:50.392Z,-9.45
2023-02-06T23:42:52.066Z,-9.71
2023-02-06T23:47:56.414Z,-9.74
2023-02-06T23:52:58.115Z,-9.77
2023-02-06T23:57:59.773Z,-9.84
